createdAt,value
2017-05-18T00:00:20.740Z,26.54
2017-05-18T00:01:21.084Z,26.54
2017-05-18T00:02:21.100Z,26.62
2017-05-18T00:03:21.519Z,26.54
2017-05-18T00:04:21.176Z,26.52
2017-05-18T00:05:21.519Z,26.54
2017-05-18T00:06:21.541Z,26.54
2017-05-18T00:07:21.572Z,26.5
2017-05-18T00:08:21.605Z,26.52
2017-05-18T00:09:21.328Z,26.48
2017-05-18T00:10:21.352Z,26.55
2017-05-18T00:11:21.697Z,26.48
2017-05-18T00:12:21.413Z,26.52
2017-05-18T00:13:21.758Z,26.44
2017-05-18T00:14:21.477Z,26.51
2017-05-18T00:15:21.505Z,26.54
2017-05-18T00:16:21.519Z,26.4
2017-05-18T00:17:21.877Z,26.5
2017-05-18T00:18:21.907Z,26.52
2017-05-18T00:19:21.683Z,26.48
2017-05-18T00:20:22.006Z,26.43
2017-05-18T00:21:21.720Z,26.44
2017-05-18T00:22:21.714Z,26.44
2017-05-18T00:23:22.052Z,26.51
2017-05-18T00:24:22.087Z,26.45
2017-05-18T00:25:21.491Z,26.44
2017-05-18T00:26:22.145Z,26.47
2017-05-18T00:27:22.170Z,26.39
2017-05-18T00:28:22.204Z,26.47
2017-05-18T00:29:22.239Z,26.44
2017-05-18T00:30:21.952Z,26.47
2017-05-18T00:31:22.293Z,26.44
2017-05-18T00:32:22.325Z,26.47
2017-05-18T00:33:22.354Z,26.39
2017-05-18T00:34:22.067Z,26.43
2017-05-18T00:35:22.408Z,26.44
2017-05-18T00:36:22.439Z,26.4
2017-05-18T00:37:22.521Z,26.44
2017-05-18T00:38:22.502Z,26.39
2017-05-18T00:39:22.214Z,26.36
2017-05-18T00:40:22.565Z,26.39
2017-05-18T00:41:22.597Z,26.39
2017-05-18T00:42:22.621Z,26.36
2017-05-18T00:43:22.339Z,26.37
2017-05-18T00:44:22.055Z,26.45
2017-05-18T00:45:22.399Z,26.39
2017-05-18T00:46:22.429Z,26.36
2017-05-18T00:47:22.775Z,26.37
2017-05-18T00:48:22.808Z,26.39
2017-05-18T00:49:22.834Z,26.36
2017-05-18T00:50:22.260Z,26.36
2017-05-18T00:51:22.573Z,26.32
2017-05-18T00:52:22.925Z,26.33
2017-05-18T00:53:22.951Z,26.36
2017-05-18T00:54:22.979Z,26.37
2017-05-18T00:55:23.007Z,26.37
2017-05-18T00:56:23.049Z,26.39
2017-05-18T00:57:23.061Z,26.39
2017-05-18T00:58:23.099Z,26.37
2017-05-18T00:59:23.071Z,26.33
2017-05-18T01:00:23.167Z,26.3
2017-05-18T01:01:23.191Z,26.35
2017-05-18T01:02:23.218Z,26.36
2017-05-18T01:03:23.246Z,26.3
2017-05-18T01:04:23.475Z,26.33
2017-05-18T01:05:23.372Z,26.39
2017-05-18T01:06:23.017Z,26.26
2017-05-18T01:07:23.366Z,26.37
2017-05-18T01:08:23.394Z,26.26
2017-05-18T01:09:23.683Z,26.3
2017-05-18T01:10:23.455Z,26.33
2017-05-18T01:11:23.223Z,26.32
2017-05-18T01:12:23.509Z,26.33
2017-05-18T01:13:23.542Z,26.3
2017-05-18T01:14:23.826Z,26.26
2017-05-18T01:15:23.599Z,26.36
2017-05-18T01:16:23.632Z,26.29
2017-05-18T01:17:23.661Z,26.33
2017-05-18T01:18:23.699Z,26.29
2017-05-18T01:19:23.967Z,26.32
2017-05-18T01:20:23.752Z,26.29
2017-05-18T01:21:23.830Z,26.25
2017-05-18T01:22:23.186Z,26.36
2017-05-18T01:23:23.530Z,26.3
2017-05-18T01:24:23.802Z,26.32
2017-05-18T01:25:23.895Z,26.29
2017-05-18T01:26:23.620Z,26.28
2017-05-18T01:27:23.961Z,26.28
2017-05-18T01:28:23.686Z,26.32
2017-05-18T01:29:23.642Z,26.23
2017-05-18T01:30:24.046Z,26.33
2017-05-18T01:31:23.448Z,26.29
2017-05-18T01:32:24.102Z,26.3
2017-05-18T01:33:24.138Z,26.35
2017-05-18T01:34:24.367Z,26.32
2017-05-18T01:35:23.884Z,26.3
2017-05-18T01:36:24.220Z,26.25
2017-05-18T01:37:24.249Z,26.3
2017-05-18T01:38:23.970Z,26.23
2017-05-18T01:39:24.265Z,26.23
2017-05-18T01:40:24.343Z,26.3
2017-05-18T01:41:24.372Z,26.28
2017-05-18T01:42:24.400Z,26.32
2017-05-18T01:43:24.430Z,26.25
2017-05-18T01:44:24.718Z,26.32
2017-05-18T01:45:24.175Z,26.26
2017-05-18T01:46:24.520Z,26.29
2017-05-18T01:47:24.545Z,26.29
2017-05-18T01:48:24.273Z,26.23
2017-05-18T01:49:24.826Z,26.35
2017-05-18T01:50:24.327Z,26.29
2017-05-18T01:51:24.668Z,26.29
2017-05-18T01:52:24.693Z,26.25
2017-05-18T01:53:24.417Z,26.26
2017-05-18T01:54:24.694Z,26.21
2017-05-18T01:55:24.796Z,26.21
2017-05-18T01:56:24.820Z,26.23
2017-05-18T01:57:24.844Z,26.25
2017-05-18T01:58:24.873Z,26.26
2017-05-18T01:59:25.146Z,26.21
2017-05-18T02:00:24.939Z,26.15
2017-05-18T02:01:24.964Z,26.07
2017-05-18T02:02:24.992Z,26.1
2017-05-18T02:03:25.023Z,26.13
2017-05-18T02:04:25.310Z,26.15
2017-05-18T02:05:25.083Z,26.12
2017-05-18T02:06:24.801Z,26.12
2017-05-18T02:07:24.834Z,26.09
2017-05-18T02:08:24.858Z,26.1
2017-05-18T02:09:25.133Z,26.1
2017-05-18T02:10:24.915Z,26.23
2017-05-18T02:11:25.260Z,26.15
2017-05-18T02:12:25.289Z,26.09
2017-05-18T02:13:25.318Z,26.18
2017-05-18T02:14:25.597Z,26.07
2017-05-18T02:15:25.383Z,26.15
2017-05-18T02:16:25.408Z,26.12
2017-05-18T02:17:25.441Z,26.12
2017-05-18T02:18:25.466Z,26.12
2017-05-18T02:19:25.118Z,25.99
2017-05-18T02:20:25.527Z,26.06
2017-05-18T02:21:25.243Z,26.09
2017-05-18T02:22:25.585Z,26.07
2017-05-18T02:23:25.300Z,26.01
2017-05-18T02:24:25.902Z,26.05
2017-05-18T02:25:25.670Z,26.13
2017-05-18T02:26:25.703Z,26.09
2017-05-18T02:27:25.424Z,26.02
2017-05-18T02:28:25.766Z,26.09
2017-05-18T02:29:26.050Z,26.01
2017-05-18T02:30:25.507Z,26.17
2017-05-18T02:31:25.536Z,26.12
2017-05-18T02:32:25.877Z,26.15
2017-05-18T02:33:25.588Z,26.15
2017-05-18T02:34:26.189Z,26.15
2017-05-18T02:35:25.656Z,26.1
2017-05-18T02:36:26.000Z,26.13
2017-05-18T02:37:26.023Z,26.09
2017-05-18T02:38:26.057Z,26.13
2017-05-18T02:39:25.774Z,26.12
2017-05-18T02:40:26.114Z,26.09
2017-05-18T02:41:25.846Z,26.07
2017-05-18T02:42:26.225Z,26.17
2017-05-18T02:43:25.889Z,26.18
2017-05-18T02:44:26.231Z,26.07
2017-05-18T02:45:25.947Z,26.09
2017-05-18T02:46:26.300Z,26.1
2017-05-18T02:47:26.325Z,26.1
2017-05-18T02:48:26.358Z,26.09
2017-05-18T02:49:25.754Z,26.07
2017-05-18T02:50:26.095Z,26.12
2017-05-18T02:51:26.435Z,26.07
2017-05-18T02:52:26.149Z,26.07
2017-05-18T02:53:26.182Z,26.13
2017-05-18T02:54:26.534Z,26.09
2017-05-18T02:55:26.549Z,26.07
2017-05-18T02:56:26.267Z,26.13
2017-05-18T02:57:25.984Z,26.12
2017-05-18T02:58:26.648Z,26.05
2017-05-18T02:59:26.670Z,26.15
2017-05-18T03:00:26.391Z,26.1
2017-05-18T03:01:26.732Z,26.13
2017-05-18T03:02:26.456Z,26.17
2017-05-18T03:03:26.233Z,26.09
2017-05-18T03:04:26.848Z,26.1
2017-05-18T03:05:26.847Z,26.1
2017-05-18T03:06:26.884Z,26.15
2017-05-18T03:07:26.900Z,26.1
2017-05-18T03:08:26.937Z,26.07
2017-05-18T03:09:26.971Z,26.02
2017-05-18T03:10:26.988Z,26.1
2017-05-18T03:11:27.028Z,26.1
2017-05-18T03:12:27.052Z,26.02
2017-05-18T03:13:26.772Z,26.02
2017-05-18T03:14:26.798Z,26.05
2017-05-18T03:15:26.838Z,26.02
2017-05-18T03:16:26.546Z,26.09
2017-05-18T03:17:27.204Z,26.09
2017-05-18T03:18:27.232Z,26.05
2017-05-18T03:19:27.269Z,26.09
2017-05-18T03:20:27.290Z,26.06
2017-05-18T03:21:27.324Z,26.06
2017-05-18T03:22:27.348Z,26.06
2017-05-18T03:23:27.386Z,26.09
2017-05-18T03:24:27.414Z,26.01
2017-05-18T03:25:27.379Z,26.07
2017-05-18T03:26:27.159Z,26.18
2017-05-18T03:27:27.180Z,26.02
2017-05-18T03:28:27.582Z,26.06
2017-05-18T03:29:27.554Z,26.02
2017-05-18T03:30:27.834Z,26.13
2017-05-18T03:31:27.303Z,26.05
2017-05-18T03:32:27.020Z,26.17
2017-05-18T03:33:27.665Z,26.12
2017-05-18T03:34:27.702Z,26.13
2017-05-18T03:35:27.927Z,26.1
2017-05-18T03:36:27.760Z,26.07
2017-05-18T03:37:27.796Z,26.05
2017-05-18T03:38:27.830Z,26.09
2017-05-18T03:39:27.851Z,26.12
2017-05-18T03:40:28.078Z,26.07
2017-05-18T03:41:27.287Z,26.05
2017-05-18T03:42:27.949Z,26.12
2017-05-18T03:43:27.974Z,26.13
2017-05-18T03:44:27.994Z,26.1
2017-05-18T03:45:28.278Z,26.1
2017-05-18T03:46:28.059Z,26.09
2017-05-18T03:47:28.079Z,26.06
2017-05-18T03:48:27.804Z,26.1
2017-05-18T03:49:28.146Z,26.1
2017-05-18T03:50:28.114Z,26.06
2017-05-18T03:51:27.890Z,26.12
2017-05-18T03:52:28.228Z,26.12
2017-05-18T03:53:28.264Z,26.12
2017-05-18T03:54:28.298Z,26.15
2017-05-18T03:55:28.262Z,26.12
2017-05-18T03:56:28.035Z,26.02
2017-05-18T03:57:28.068Z,26.09
2017-05-18T03:58:28.409Z,26.09
2017-05-18T03:59:28.437Z,26.05
2017-05-18T04:00:28.725Z,26.12
2017-05-18T04:01:28.491Z,26.05
2017-05-18T04:02:28.527Z,26.1
2017-05-18T04:03:28.556Z,26.07
2017-05-18T04:04:28.581Z,26.1
2017-05-18T04:05:28.810Z,26.05
2017-05-18T04:06:28.643Z,26.12
2017-05-18T04:07:28.675Z,26.17
2017-05-18T04:08:28.397Z,26.12
2017-05-18T04:09:28.733Z,26.09
2017-05-18T04:10:28.333Z,26.13
2017-05-18T04:11:28.791Z,26.1
2017-05-18T04:12:28.190Z,26.07
2017-05-18T04:13:28.844Z,26.13
2017-05-18T04:14:28.877Z,26.07
2017-05-18T04:15:29.165Z,26.05
2017-05-18T04:16:28.943Z,26.05
2017-05-18T04:17:28.655Z,26.09
2017-05-18T04:18:29.001Z,26.06
2017-05-18T04:19:28.709Z,26.07
2017-05-18T04:20:29.055Z,26.07
2017-05-18T04:21:29.087Z,26.07
2017-05-18T04:22:29.116Z,26.1
2017-05-18T04:23:29.148Z,26.12
2017-05-18T04:24:28.865Z,26.07
2017-05-18T04:25:29.202Z,26.1
2017-05-18T04:26:29.235Z,26.07
2017-05-18T04:27:29.268Z,26.12
2017-05-18T04:28:29.289Z,26.12
2017-05-18T04:29:29.321Z,26.12
2017-05-18T04:30:29.037Z,26.06
2017-05-18T04:31:29.071Z,26.05
2017-05-18T04:32:29.411Z,26.06
2017-05-18T04:33:29.444Z,26.07
2017-05-18T04:34:29.469Z,26.1
2017-05-18T04:35:29.497Z,26.09
2017-05-18T04:36:29.527Z,26.09
2017-05-18T04:37:29.560Z,26.12
2017-05-18T04:38:29.273Z,26.1
2017-05-18T04:39:29.612Z,26.09
2017-05-18T04:40:29.341Z,26.13
2017-05-18T04:41:29.362Z,26.09
2017-05-18T04:42:29.695Z,26.09
2017-05-18T04:43:29.731Z,26.13
2017-05-18T04:44:29.449Z,26.06
2017-05-18T04:45:29.509Z,26.1
2017-05-18T04:46:29.762Z,26.15
2017-05-18T04:47:29.527Z,26.18
2017-05-18T04:48:29.872Z,26.15
2017-05-18T04:49:29.601Z,26.15
2017-05-18T04:50:29.626Z,26.1
2017-05-18T04:51:30.214Z,26.2
2017-05-18T04:52:29.999Z,26.09
2017-05-18T04:53:30.035Z,26.1
2017-05-18T04:54:30.062Z,26.18
2017-05-18T04:55:30.086Z,26.21
2017-05-18T04:56:30.318Z,26.15
2017-05-18T04:57:30.139Z,26.18
2017-05-18T04:58:30.178Z,26.18
2017-05-18T04:59:30.206Z,26.06
2017-05-18T05:00:30.233Z,26.09
2017-05-18T05:01:30.142Z,26.09
2017-05-18T05:02:29.663Z,26.15
2017-05-18T05:03:30.320Z,26.09
2017-05-18T05:04:30.040Z,26.18
2017-05-18T05:05:30.097Z,26.17
2017-05-18T05:06:30.610Z,26.15
2017-05-18T05:07:30.128Z,26.13
2017-05-18T05:08:30.468Z,26.15
2017-05-18T05:09:30.502Z,26.2
2017-05-18T05:10:29.893Z,26.18
2017-05-18T05:11:30.493Z,26.1
2017-05-18T05:12:30.587Z,26.09
2017-05-18T05:13:30.612Z,26.06
2017-05-18T05:14:30.641Z,26.06
2017-05-18T05:15:30.673Z,26.09
2017-05-18T05:16:30.905Z,26.05
2017-05-18T05:17:30.420Z,26.1
2017-05-18T05:18:30.768Z,26.1
2017-05-18T05:19:30.492Z,26.1
2017-05-18T05:20:30.512Z,26.09
2017-05-18T05:21:31.107Z,26.1
2017-05-18T05:22:30.884Z,26.09
2017-05-18T05:23:30.908Z,26.1
2017-05-18T05:24:30.627Z,26.09
2017-05-18T05:25:30.662Z,26.07
2017-05-18T05:26:31.249Z,26.12
2017-05-18T05:27:30.718Z,26.07
2017-05-18T05:28:30.744Z,26.09
2017-05-18T05:29:31.085Z,26.09
2017-05-18T05:30:30.806Z,26.1
2017-05-18T05:31:31.145Z,26.07
2017-05-18T05:32:30.912Z,26.09
2017-05-18T05:33:30.884Z,26.06
2017-05-18T05:34:30.921Z,26.05
2017-05-18T05:35:30.633Z,26.1
2017-05-18T05:36:31.289Z,26.13
2017-05-18T05:37:31.319Z,26.13
2017-05-18T05:38:31.353Z,26.07
2017-05-18T05:39:31.381Z,26.07
2017-05-18T05:40:31.414Z,26.15
2017-05-18T05:41:31.429Z,26.13
2017-05-18T05:42:31.463Z,26.13
2017-05-18T05:43:31.500Z,26.2
2017-05-18T05:44:31.529Z,26.15
2017-05-18T05:45:31.245Z,26.23
2017-05-18T05:46:31.583Z,26.23
2017-05-18T05:47:31.292Z,26.23
2017-05-18T05:48:31.643Z,26.28
2017-05-18T05:49:31.358Z,26.33
2017-05-18T05:50:31.704Z,26.25
2017-05-18T05:51:31.419Z,26.26
2017-05-18T05:52:31.762Z,26.26
2017-05-18T05:53:31.163Z,26.29
2017-05-18T05:54:31.821Z,26.26
2017-05-18T05:55:31.849Z,26.32
2017-05-18T05:56:31.874Z,26.29
2017-05-18T05:57:31.915Z,26.36
2017-05-18T05:58:31.940Z,26.32
2017-05-18T05:59:31.977Z,26.29
2017-05-18T06:00:31.682Z,26.26
2017-05-18T06:01:31.707Z,26.35
2017-05-18T06:02:32.055Z,26.29
2017-05-18T06:03:31.777Z,26.29
2017-05-18T06:04:32.120Z,26.36
2017-05-18T06:05:32.138Z,26.39
2017-05-18T06:06:31.863Z,26.29
2017-05-18T06:07:32.202Z,26.3
2017-05-18T06:08:32.232Z,26.37
2017-05-18T06:09:32.265Z,26.37
2017-05-18T06:10:32.293Z,26.35
2017-05-18T06:11:32.006Z,26.35
2017-05-18T06:12:32.036Z,26.26
2017-05-18T06:13:32.382Z,26.32
2017-05-18T06:14:32.093Z,26.33
2017-05-18T06:15:32.133Z,26.37
2017-05-18T06:16:32.470Z,26.39
2017-05-18T06:17:31.872Z,26.37
2017-05-18T06:18:32.213Z,26.45
2017-05-18T06:19:32.553Z,26.4
2017-05-18T06:20:32.270Z,26.36
2017-05-18T06:21:32.307Z,26.43
2017-05-18T06:22:32.587Z,26.45
2017-05-18T06:23:32.672Z,26.45
2017-05-18T06:24:32.717Z,26.45
2017-05-18T06:25:32.734Z,26.43
2017-05-18T06:26:32.762Z,26.45
2017-05-18T06:27:33.047Z,26.48
2017-05-18T06:28:32.894Z,26.39
2017-05-18T06:29:32.853Z,26.47
2017-05-18T06:30:32.882Z,26.33
2017-05-18T06:31:32.911Z,26.51
2017-05-18T06:32:33.143Z,26.39
2017-05-18T06:33:32.668Z,26.45
2017-05-18T06:34:32.690Z,26.39
2017-05-18T06:35:32.714Z,26.48
2017-05-18T06:36:33.066Z,26.4
2017-05-18T06:37:33.342Z,26.52
2017-05-18T06:38:33.125Z,26.44
2017-05-18T06:39:33.153Z,26.48
2017-05-18T06:40:33.181Z,26.54
2017-05-18T06:41:33.210Z,26.44
2017-05-18T06:42:33.183Z,26.39
2017-05-18T06:43:32.953Z,26.52
2017-05-18T06:44:33.308Z,26.44
2017-05-18T06:45:33.016Z,26.54
2017-05-18T06:46:33.355Z,26.48
2017-05-18T06:47:33.648Z,26.47
2017-05-18T06:48:33.103Z,26.44
2017-05-18T06:49:33.129Z,26.44
2017-05-18T06:50:33.474Z,26.44
2017-05-18T06:51:33.196Z,26.54
2017-05-18T06:52:33.789Z,26.47
2017-05-18T06:53:33.567Z,26.54
2017-05-18T06:54:33.593Z,26.44
2017-05-18T06:55:33.309Z,26.5
2017-05-18T06:56:33.651Z,26.39
2017-05-18T06:57:33.619Z,26.43
2017-05-18T06:58:33.708Z,26.52
2017-05-18T06:59:33.427Z,26.54
2017-05-18T07:00:33.769Z,26.54
2017-05-18T07:01:33.182Z,26.47
2017-05-18T07:02:34.032Z,26.58
2017-05-18T07:03:33.865Z,26.52
2017-05-18T07:04:33.270Z,26.51
2017-05-18T07:05:33.922Z,26.54
2017-05-18T07:06:33.641Z,26.54
2017-05-18T07:07:34.223Z,26.47
2017-05-18T07:08:33.693Z,26.44
2017-05-18T07:09:33.758Z,26.54
2017-05-18T07:10:34.070Z,26.57
2017-05-18T07:11:34.103Z,26.44
2017-05-18T07:12:34.016Z,26.58
2017-05-18T07:13:34.165Z,26.54
2017-05-18T07:14:33.569Z,26.54
2017-05-18T07:15:33.907Z,26.51
2017-05-18T07:16:34.247Z,26.51
2017-05-18T07:17:34.172Z,26.51
2017-05-18T07:18:34.305Z,26.51
2017-05-18T07:19:34.339Z,26.52
2017-05-18T07:20:34.362Z,26.5
2017-05-18T07:21:34.391Z,26.43
2017-05-18T07:22:34.360Z,26.54
2017-05-18T07:23:34.488Z,26.58
2017-05-18T07:24:34.169Z,26.52
2017-05-18T07:25:34.518Z,26.44
2017-05-18T07:26:34.231Z,26.48
2017-05-18T07:27:34.516Z,26.48
2017-05-18T07:28:34.605Z,26.45
2017-05-18T07:29:34.632Z,26.58
2017-05-18T07:30:34.663Z,26.44
2017-05-18T07:31:34.691Z,26.48
2017-05-18T07:32:34.928Z,26.45
2017-05-18T07:33:34.129Z,26.45
2017-05-18T07:34:34.467Z,26.51
2017-05-18T07:35:34.806Z,26.55
2017-05-18T07:36:34.216Z,26.48
2017-05-18T07:37:34.749Z,26.54
2017-05-18T07:38:34.911Z,26.54
2017-05-18T07:39:34.933Z,26.5
2017-05-18T07:40:34.647Z,26.51
2017-05-18T07:41:34.671Z,26.55
2017-05-18T07:42:35.276Z,26.54
2017-05-18T07:43:35.050Z,26.52
2017-05-18T07:44:35.078Z,26.45
2017-05-18T07:45:35.105Z,26.58
2017-05-18T07:46:34.820Z,26.51
2017-05-18T07:47:35.413Z,26.55
2017-05-18T07:48:35.198Z,26.52
2017-05-18T07:49:34.923Z,26.5
2017-05-18T07:50:35.255Z,26.55
2017-05-18T07:51:35.286Z,26.58
2017-05-18T07:52:35.209Z,26.54
2017-05-18T07:53:35.387Z,26.51
2017-05-18T07:54:34.748Z,26.54
2017-05-18T07:55:35.082Z,26.6
2017-05-18T07:56:35.115Z,26.52
2017-05-18T07:57:35.395Z,26.63
2017-05-18T07:58:35.497Z,26.55
2017-05-18T07:59:35.206Z,26.6
2017-05-18T08:00:35.551Z,26.54
2017-05-18T08:01:35.585Z,26.55
2017-05-18T08:02:35.540Z,26.52
2017-05-18T08:03:35.640Z,26.67
2017-05-18T08:04:35.672Z,26.69
2017-05-18T08:05:35.714Z,26.58
2017-05-18T08:06:35.735Z,26.65
2017-05-18T08:07:35.648Z,26.65
2017-05-18T08:08:35.470Z,26.62
2017-05-18T08:09:35.518Z,26.63
2017-05-18T08:10:35.539Z,26.69
2017-05-18T08:11:35.879Z,26.66
2017-05-18T08:12:36.157Z,26.65
2017-05-18T08:13:35.925Z,26.66
2017-05-18T08:14:35.973Z,26.62
2017-05-18T08:15:35.998Z,26.69
2017-05-18T08:16:35.708Z,26.65
2017-05-18T08:17:35.676Z,26.67
2017-05-18T08:18:35.457Z,26.69
2017-05-18T08:19:36.122Z,26.62
2017-05-18T08:20:36.146Z,26.65
2017-05-18T08:21:36.175Z,26.73
2017-05-18T08:22:35.891Z,26.7
2017-05-18T08:23:35.925Z,26.66
2017-05-18T08:24:35.643Z,26.7
2017-05-18T08:25:36.315Z,26.7
2017-05-18T08:26:36.324Z,26.69
2017-05-18T08:27:36.609Z,26.73
2017-05-18T08:28:36.085Z,26.75
2017-05-18T08:29:36.415Z,26.81
2017-05-18T08:30:36.139Z,26.8
2017-05-18T08:31:36.575Z,26.72
2017-05-18T08:32:36.756Z,26.67
2017-05-18T08:33:36.222Z,26.66
2017-05-18T08:34:36.566Z,26.67
2017-05-18T08:35:36.283Z,26.76
2017-05-18T08:36:36.312Z,26.8
2017-05-18T08:37:36.540Z,26.75
2017-05-18T08:38:36.685Z,26.8
2017-05-18T08:39:36.404Z,26.8
2017-05-18T08:40:36.731Z,26.81
2017-05-18T08:41:36.776Z,26.81
2017-05-18T08:42:37.009Z,26.8
2017-05-18T08:43:36.554Z,26.84
2017-05-18T08:44:36.551Z,26.77
2017-05-18T08:45:36.895Z,26.87
2017-05-18T08:46:36.610Z,26.88
2017-05-18T08:47:36.887Z,26.88
2017-05-18T08:48:36.662Z,26.91
2017-05-18T08:49:37.005Z,26.89
2017-05-18T08:50:37.043Z,26.87
2017-05-18T08:51:37.083Z,26.88
2017-05-18T08:52:37.347Z,26.88
2017-05-18T08:53:36.825Z,26.95
2017-05-18T08:54:37.166Z,26.92
2017-05-18T08:55:37.179Z,26.94
2017-05-18T08:56:36.915Z,26.95
2017-05-18T08:57:36.945Z,26.94
2017-05-18T08:58:36.970Z,26.99
2017-05-18T08:59:37.333Z,26.95
2017-05-18T09:00:37.343Z,27
2017-05-18T09:01:37.375Z,26.94
2017-05-18T09:02:37.087Z,26.94
2017-05-18T09:03:37.433Z,26.94
2017-05-18T09:04:37.457Z,27
2017-05-18T09:05:37.175Z,26.94
2017-05-18T09:06:37.519Z,26.95
2017-05-18T09:07:37.553Z,26.89
2017-05-18T09:08:37.586Z,26.97
2017-05-18T09:09:37.306Z,27
2017-05-18T09:10:37.635Z,27.02
2017-05-18T09:11:37.671Z,27.02
2017-05-18T09:12:37.397Z,26.97
2017-05-18T09:13:37.734Z,26.89
2017-05-18T09:14:37.762Z,26.94
2017-05-18T09:15:37.475Z,26.95
2017-05-18T09:16:37.503Z,26.94
2017-05-18T09:17:37.537Z,26.94
2017-05-18T09:18:37.881Z,26.95
2017-05-18T09:19:37.910Z,26.94
2017-05-18T09:20:37.939Z,26.97
2017-05-18T09:21:37.967Z,26.92
2017-05-18T09:22:37.688Z,26.92
2017-05-18T09:23:37.774Z,26.91
2017-05-18T09:24:38.118Z,26.94
2017-05-18T09:25:38.075Z,27.02
2017-05-18T09:26:38.119Z,27.04
2017-05-18T09:27:38.149Z,27.04
2017-05-18T09:28:37.870Z,26.99
2017-05-18T09:29:37.898Z,26.97
2017-05-18T09:30:38.239Z,27
2017-05-18T09:31:37.956Z,26.95
2017-05-18T09:32:38.301Z,26.95
2017-05-18T09:33:38.222Z,26.99
2017-05-18T09:34:38.063Z,27
2017-05-18T09:35:38.387Z,26.92
2017-05-18T09:36:38.423Z,27
2017-05-18T09:37:38.132Z,27.06
2017-05-18T09:38:38.726Z,27
2017-05-18T09:39:38.511Z,27.04
2017-05-18T09:40:38.539Z,27.04
2017-05-18T09:41:38.255Z,27.03
2017-05-18T09:42:38.598Z,26.99
2017-05-18T09:43:38.513Z,27
2017-05-18T09:44:38.342Z,27
2017-05-18T09:45:38.372Z,27.09
2017-05-18T09:46:38.408Z,27.03
2017-05-18T09:47:38.440Z,27.04
2017-05-18T09:48:38.979Z,27.14
2017-05-18T09:49:38.494Z,27.1
2017-05-18T09:50:38.840Z,27.12
2017-05-18T09:51:38.869Z,27.06
2017-05-18T09:52:38.274Z,27.09
2017-05-18T09:53:39.181Z,27.13
2017-05-18T09:54:38.645Z,27.19
2017-05-18T09:55:38.989Z,27.13
2017-05-18T09:56:38.704Z,27.19
2017-05-18T09:57:38.738Z,27.21
2017-05-18T09:58:39.334Z,27.21
2017-05-18T09:59:38.795Z,27.12
2017-05-18T10:00:38.828Z,27.21
2017-05-18T10:01:38.856Z,27.12
2017-05-18T10:02:38.906Z,27.13
2017-05-18T10:03:39.165Z,27.17
2017-05-18T10:04:39.259Z,27.09
2017-05-18T10:05:39.336Z,27.13
2017-05-18T10:06:39.333Z,27.1
2017-05-18T10:07:39.357Z,27.09
2017-05-18T10:08:39.631Z,27.09
2017-05-18T10:09:39.414Z,27.09
2017-05-18T10:10:39.124Z,27.06
2017-05-18T10:11:39.165Z,27.1
2017-05-18T10:12:39.190Z,27.13
2017-05-18T10:13:39.418Z,27.13
2017-05-18T10:14:39.575Z,27.03
2017-05-18T10:15:38.964Z,27.07
2017-05-18T10:16:39.621Z,27.03
2017-05-18T10:17:39.657Z,26.99
2017-05-18T10:18:39.882Z,27.04
2017-05-18T10:19:39.703Z,27
2017-05-18T10:20:39.428Z,27.03
2017-05-18T10:21:39.774Z,27.12
2017-05-18T10:22:39.802Z,27.06
2017-05-18T10:23:39.779Z,27.1
2017-05-18T10:24:39.551Z,27.07
2017-05-18T10:25:39.897Z,27.09
2017-05-18T10:26:39.917Z,27.09
2017-05-18T10:27:39.957Z,27.19
2017-05-18T10:28:39.875Z,27.17
2017-05-18T10:29:39.703Z,27.13
2017-05-18T10:30:40.045Z,27.21
2017-05-18T10:31:40.080Z,27.17
2017-05-18T10:32:40.104Z,27.27
2017-05-18T10:33:40.386Z,27.28
2017-05-18T10:34:40.174Z,27.28
2017-05-18T10:35:39.878Z,27.32
2017-05-18T10:36:40.217Z,27.34
2017-05-18T10:37:39.942Z,27.22
2017-05-18T10:38:39.991Z,27.34
2017-05-18T10:39:40.315Z,27.32
2017-05-18T10:40:40.343Z,27.37
2017-05-18T10:41:40.374Z,27.4
2017-05-18T10:42:40.096Z,27.39
2017-05-18T10:43:40.119Z,27.44
2017-05-18T10:44:40.148Z,27.37
2017-05-18T10:45:40.496Z,27.39
2017-05-18T10:46:40.525Z,27.43
2017-05-18T10:47:40.252Z,27.37
2017-05-18T10:48:40.587Z,27.47
2017-05-18T10:49:40.619Z,27.47
2017-05-18T10:50:40.338Z,27.43
2017-05-18T10:51:40.364Z,27.54
2017-05-18T10:52:40.395Z,27.47
2017-05-18T10:53:40.739Z,27.47
2017-05-18T10:54:40.767Z,27.5
2017-05-18T10:55:40.797Z,27.47
2017-05-18T10:56:40.830Z,27.43
2017-05-18T10:57:40.546Z,27.54
2017-05-18T10:58:40.577Z,27.54
2017-05-18T10:59:40.295Z,27.55
2017-05-18T11:00:40.957Z,27.57
2017-05-18T11:01:40.989Z,27.54
2017-05-18T11:02:41.014Z,27.47
2017-05-18T11:03:40.768Z,27.47
2017-05-18T11:04:41.073Z,27.46
2017-05-18T11:05:41.101Z,27.47
2017-05-18T11:06:40.821Z,27.5
2017-05-18T11:07:41.168Z,27.54
2017-05-18T11:08:41.184Z,27.51
2017-05-18T11:09:41.220Z,27.49
2017-05-18T11:10:41.253Z,27.5
2017-05-18T11:11:40.982Z,27.47
2017-05-18T11:12:41.008Z,27.5
2017-05-18T11:13:41.093Z,27.49
2017-05-18T11:14:41.373Z,27.47
2017-05-18T11:15:41.400Z,27.41
2017-05-18T11:16:41.121Z,27.46
2017-05-18T11:17:41.160Z,27.55
2017-05-18T11:18:41.181Z,27.49
2017-05-18T11:19:41.223Z,27.49
2017-05-18T11:20:41.557Z,27.47
2017-05-18T11:21:41.587Z,27.54
2017-05-18T11:22:40.995Z,27.5
2017-05-18T11:23:41.647Z,27.65
2017-05-18T11:24:41.876Z,27.57
2017-05-18T11:25:41.402Z,27.59
2017-05-18T11:26:41.738Z,27.55
2017-05-18T11:27:41.770Z,27.63
2017-05-18T11:28:41.796Z,27.66
2017-05-18T11:29:42.041Z,27.7
2017-05-18T11:30:41.545Z,27.7
2017-05-18T11:31:41.893Z,27.75
2017-05-18T11:32:41.613Z,27.69
2017-05-18T11:33:41.696Z,27.77
2017-05-18T11:34:42.182Z,27.84
2017-05-18T11:35:41.701Z,27.92
2017-05-18T11:36:41.407Z,27.81
2017-05-18T11:37:42.081Z,27.9
2017-05-18T11:38:41.799Z,27.97
2017-05-18T11:39:42.376Z,28.14
2017-05-18T11:40:42.171Z,28.19
2017-05-18T11:41:41.882Z,28.37
2017-05-18T11:42:41.916Z,28.56
2017-05-18T11:43:42.275Z,28.62
2017-05-18T11:44:42.501Z,28.73
2017-05-18T11:45:42.012Z,28.89
2017-05-18T11:46:42.046Z,28.96
2017-05-18T11:47:42.385Z,29.09
2017-05-18T11:48:42.105Z,29.14
2017-05-18T11:49:42.393Z,29.21
2017-05-18T11:50:42.482Z,29.31
2017-05-18T11:51:42.197Z,29.37
2017-05-18T11:52:42.551Z,29.39
2017-05-18T11:53:41.951Z,29.53
2017-05-18T11:54:42.497Z,29.49
2017-05-18T11:55:42.641Z,29.64
2017-05-18T11:56:42.355Z,29.67
2017-05-18T11:57:42.702Z,29.73
2017-05-18T11:58:42.421Z,29.64
2017-05-18T11:59:42.966Z,29.76
2017-05-18T12:00:42.804Z,29.83
2017-05-18T12:01:42.829Z,29.82
2017-05-18T12:02:42.551Z,29.78
2017-05-18T12:03:42.603Z,29.78
2017-05-18T12:04:43.177Z,29.82
2017-05-18T12:05:42.958Z,29.79
2017-05-18T12:06:42.679Z,29.79
2017-05-18T12:07:43.018Z,29.76
2017-05-18T12:08:43.048Z,29.73
2017-05-18T12:09:43.279Z,29.68
2017-05-18T12:10:43.117Z,29.6
2017-05-18T12:11:43.152Z,29.6
2017-05-18T12:12:43.187Z,29.58
2017-05-18T12:13:43.213Z,29.63
2017-05-18T12:14:43.133Z,29.55
2017-05-18T12:15:43.274Z,29.46
2017-05-18T12:16:43.307Z,29.46
2017-05-18T12:17:43.027Z,29.46
2017-05-18T12:18:43.367Z,29.41
2017-05-18T12:19:43.337Z,29.41
2017-05-18T12:20:43.123Z,29.37
2017-05-18T12:21:43.466Z,29.37
2017-05-18T12:22:43.498Z,29.36
2017-05-18T12:23:43.527Z,29.36
2017-05-18T12:24:43.817Z,29.31
2017-05-18T12:25:43.273Z,29.26
2017-05-18T12:26:43.306Z,29.3
2017-05-18T12:27:43.655Z,29.28
2017-05-18T12:28:43.371Z,29.28
2017-05-18T12:29:43.348Z,29.33
2017-05-18T12:30:43.126Z,29.27
2017-05-18T12:31:43.474Z,29.27
2017-05-18T12:32:43.506Z,29.26
2017-05-18T12:33:43.840Z,29.23
2017-05-18T12:34:44.076Z,29.26
2017-05-18T12:35:43.590Z,29.26
2017-05-18T12:36:43.937Z,29.16
2017-05-18T12:37:44.030Z,29.21
2017-05-18T12:38:44.004Z,29.26
2017-05-18T12:39:44.290Z,29.18
2017-05-18T12:40:43.753Z,29.21
2017-05-18T12:41:44.099Z,29.08
2017-05-18T12:42:44.127Z,29.08
2017-05-18T12:43:43.846Z,29.05
2017-05-18T12:44:44.188Z,29.05
2017-05-18T12:45:44.217Z,28.95
2017-05-18T12:46:44.245Z,28.95
2017-05-18T12:47:44.287Z,28.96
2017-05-18T12:48:44.005Z,28.98
2017-05-18T12:49:44.348Z,28.93
2017-05-18T12:50:44.377Z,28.86
2017-05-18T12:51:44.102Z,28.9
2017-05-18T12:52:43.818Z,28.93
2017-05-18T12:53:44.475Z,28.85
2017-05-18T12:54:44.196Z,28.89
2017-05-18T12:55:44.542Z,28.89
2017-05-18T12:56:44.258Z,28.95